sensor_id;sensor_type;location;lat;lon;timestamp;temperature;humidity
51021;DHT22;38907;45.562;8.856;2023-03-24T00:04:33;12.30;99.90
51021;DHT22;38907;45.562;8.856;2023-03-24T00:09:35;12.30;99.90
51021;DHT22;38907;45.562;8.856;2023-03-24T00:14:39;12.10;99.90
51021;DHT22;38907;45.562;8.856;2023-03-24T00:19:42;12.10;99.90
51021;DHT22;38907;45.562;8.856;2023-03-24T00:24:44;12.40;99.90
51021;DHT22;38907;45.562;8.856;2023-03-24T00:29:48;12.50;99.90
51021;DHT22;38907;45.562;8.856;2023-03-24T00:34:50;12.40;99.90
51021;DHT22;38907;45.562;8.856;2023-03-24T00:39:52;12.50;99.90
51021;DHT22;38907;45.562;8.856;2023-03-24T00:44:55;12.50;99.90
51021;DHT22;38907;45.562;8.856;2023-03-24T00:49:58;12.50;99.90
51021;DHT22;38907;45.562;8.856;2023-03-24T00:55:03;12.20;99.90
51021;DHT22;38907;45.562;8.856;2023-03-24T01:00:08;12.00;99.90
51021;DHT22;38907;45.562;8.856;2023-03-24T01:05:14;12.10;99.90
51021;DHT22;38907;45.562;8.856;2023-03-24T01:10:19;11.80;99.90
51021;DHT22;38907;45.562;8.856;2023-03-24T01:15:28;11.90;99.90
51021;DHT22;38907;45.562;8.856;2023-03-24T01:20:31;12.00;99.90
51021;DHT22;38907;45.562;8.856;2023-03-24T01:25:36;12.00;99.90
51021;DHT22;38907;45.562;8.856;2023-03-24T01:30:39;12.00;99.90
51021;DHT22;38907;45.562;8.856;2023-03-24T01:35:41;12.00;99.90
51021;DHT22;38907;45.562;8.856;2023-03-24T01:40:45;12.10;99.90
51021;DHT22;38907;45.562;8.856;2023-03-24T01:46:01;11.40;99.90
51021;DHT22;38907;45.562;8.856;2023-03-24T01:51:11;11.10;99.90
51021;DHT22;38907;45.562;8.856;2023-03-24T01:56:13;11.50;99.90
51021;DHT22;38907;45.562;8.856;2023-03-24T02:01:17;11.50;99.90
51021;DHT22;38907;45.562;8.856;2023-03-24T02:06:21;11.80;99.90
51021;DHT22;38907;45.562;8.856;2023-03-24T02:11:27;11.80;99.90
51021;DHT22;38907;45.562;8.856;2023-03-24T02:16:48;11.80;99.90
51021;DHT22;38907;45.562;8.856;2023-03-24T02:22:19;11.80;99.90
51021;DHT22;38907;45.562;8.856;2023-03-24T02:27:44;12.00;99.90
51021;DHT22;38907;45.562;8.856;2023-03-24T02:38:50;12.00;99.90
51021;DHT22;38907;45.562;8.856;2023-03-24T02:44:02;11.70;99.90
51021;DHT22;38907;45.562;8.856;2023-03-24T02:49:10;11.70;99.90
51021;DHT22;38907;45.562;8.856;2023-03-24T02:54:22;11.60;99.90
51021;DHT22;38907;45.562;8.856;2023-03-24T02:59:31;11.60;99.90
51021;DHT22;38907;45.562;8.856;2023-03-24T03:04:40;11.80;99.90
51021;DHT22;38907;45.562;8.856;2023-03-24T03:09:52;11.80;99.90
51021;DHT22;38907;45.562;8.856;2023-03-24T03:15:00;11.90;99.90
51021;DHT22;38907;45.562;8.856;2023-03-24T03:20:07;11.80;99.90
51021;DHT22;38907;45.562;8.856;2023-03-24T03:25:12;11.60;99.90
51021;DHT22;38907;45.562;8.856;2023-03-24T03:30:22;11.90;99.90
51021;DHT22;38907;45.562;8.856;2023-03-24T03:35:29;11.90;99.90
51021;DHT22;38907;45.562;8.856;2023-03-24T03:40:35;12.00;99.90
51021;DHT22;38907;45.562;8.856;2023-03-24T03:45:40;11.90;99.90
51021;DHT22;38907;45.562;8.856;2023-03-24T03:50:42;11.90;99.90
51021;DHT22;38907;45.562;8.856;2023-03-24T03:55:44;11.90;99.90
51021;DHT22;38907;45.562;8.856;2023-03-24T04:00:48;11.90;99.90
51021;DHT22;38907;45.562;8.856;2023-03-24T04:05:52;11.80;99.90
51021;DHT22;38907;45.562;8.856;2023-03-24T04:11:16;12.00;99.90
51021;DHT22;38907;45.562;8.856;2023-03-24T04:16:26;11.80;99.90
51021;DHT22;38907;45.562;8.856;2023-03-24T04:21:47;11.30;99.90
51021;DHT22;38907;45.562;8.856;2023-03-24T04:26:55;11.00;99.90
51021;DHT22;38907;45.562;8.856;2023-03-24T04:32:03;11.30;99.90
51021;DHT22;38907;45.562;8.856;2023-03-24T04:37:11;11.60;99.90
51021;DHT22;38907;45.562;8.856;2023-03-24T04:42:16;11.70;99.90
51021;DHT22;38907;45.562;8.856;2023-03-24T04:47:24;11.80;99.90
51021;DHT22;38907;45.562;8.856;2023-03-24T04:52:27;11.80;99.90
51021;DHT22;38907;45.562;8.856;2023-03-24T04:57:29;11.90;99.90
51021;DHT22;38907;45.562;8.856;2023-03-24T05:02:32;12.00;99.90
51021;DHT22;38907;45.562;8.856;2023-03-24T05:07:34;12.00;99.90
51021;DHT22;38907;45.562;8.856;2023-03-24T05:12:35;12.00;99.90
51021;DHT22;38907;45.562;8.856;2023-03-24T05:17:39;12.20;99.90
51021;DHT22;38907;45.562;8.856;2023-03-24T05:22:40;12.30;99.90
51021;DHT22;38907;45.562;8.856;2023-03-24T05:27:42;12.40;99.90
51021;DHT22;38907;45.562;8.856;2023-03-24T05:32:46;12.40;99.90
51021;DHT22;38907;45.562;8.856;2023-03-24T05:37:47;12.60;99.90
51021;DHT22;38907;45.562;8.856;2023-03-24T05:42:50;12.40;99.90
51021;DHT22;38907;45.562;8.856;2023-03-24T05:47:53;12.50;99.90
51021;DHT22;38907;45.562;8.856;2023-03-24T05:52:55;12.50;99.90
51021;DHT22;38907;45.562;8.856;2023-03-24T05:57:57;12.40;99.90
51021;DHT22;38907;45.562;8.856;2023-03-24T06:03:03;12.40;99.90
51021;DHT22;38907;45.562;8.856;2023-03-24T06:08:04;12.50;99.90
51021;DHT22;38907;45.562;8.856;2023-03-24T06:13:09;12.60;99.90
51021;DHT22;38907;45.562;8.856;2023-03-24T06:18:12;12.60;99.90
51021;DHT22;38907;45.562;8.856;2023-03-24T06:23:14;12.80;99.90
51021;DHT22;38907;45.562;8.856;2023-03-24T06:28:16;12.90;99.90
51021;DHT22;38907;45.562;8.856;2023-03-24T06:33:19;13.00;99.90
51021;DHT22;38907;45.562;8.856;2023-03-24T06:38:25;13.00;99.90
51021;DHT22;38907;45.562;8.856;2023-03-24T06:43:27;13.10;99.90
51021;DHT22;38907;45.562;8.856;2023-03-24T06:48:30;13.20;99.90
51021;DHT22;38907;45.562;8.856;2023-03-24T06:53:33;13.20;99.90
51021;DHT22;38907;45.562;8.856;2023-03-24T06:58:34;13.10;99.90
51021;DHT22;38907;45.562;8.856;2023-03-24T07:03:38;13.20;99.90
51021;DHT22;38907;45.562;8.856;2023-03-24T07:08:41;13.10;99.90
51021;DHT22;38907;45.562;8.856;2023-03-24T07:13:44;13.20;99.90
51021;DHT22;38907;45.562;8.856;2023-03-24T07:18:47;13.30;99.90
51021;DHT22;38907;45.562;8.856;2023-03-24T07:23:49;13.40;99.90
51021;DHT22;38907;45.562;8.856;2023-03-24T07:28:51;13.40;99.90
51021;DHT22;38907;45.562;8.856;2023-03-24T07:33:54;13.30;99.90
51021;DHT22;38907;45.562;8.856;2023-03-24T07:38:56;13.40;99.90
51021;DHT22;38907;45.562;8.856;2023-03-24T07:43:57;13.50;99.90
51021;DHT22;38907;45.562;8.856;2023-03-24T07:49:01;13.50;99.90
51021;DHT22;38907;45.562;8.856;2023-03-24T07:54:03;13.50;99.90
51021;DHT22;38907;45.562;8.856;2023-03-24T07:59:05;13.50;99.90
51021;DHT22;38907;45.562;8.856;2023-03-24T08:04:08;13.50;99.90
51021;DHT22;38907;45.562;8.856;2023-03-24T08:09:11;13.50;99.90
51021;DHT22;38907;45.562;8.856;2023-03-24T08:14:14;13.40;99.90
51021;DHT22;38907;45.562;8.856;2023-03-24T08:19:17;13.40;99.90
51021;DHT22;38907;45.562;8.856;2023-03-24T08:24:19;13.40;99.90
51021;DHT22;38907;45.562;8.856;2023-03-24T08:29:20;13.50;99.90
51021;DHT22;38907;45.562;8.856;2023-03-24T08:34:24;13.60;99.90
51021;DHT22;38907;45.562;8.856;2023-03-24T08:39:26;13.60;99.90
51021;DHT22;38907;45.562;8.856;2023-03-24T08:44:27;13.60;99.90
51021;DHT22;38907;45.562;8.856;2023-03-24T08:49:31;13.70;99.90
51021;DHT22;38907;45.562;8.856;2023-03-24T08:54:33;13.80;99.90
51021;DHT22;38907;45.562;8.856;2023-03-24T08:59:34;13.80;99.90
51021;DHT22;38907;45.562;8.856;2023-03-24T09:04:38;13.90;99.90
51021;DHT22;38907;45.562;8.856;2023-03-24T09:09:41;14.00;99.90
51021;DHT22;38907;45.562;8.856;2023-03-24T09:14:47;14.10;99.90
51021;DHT22;38907;45.562;8.856;2023-03-24T09:19:50;14.20;99.90
51021;DHT22;38907;45.562;8.856;2023-03-24T09:24:52;14.20;99.90
51021;DHT22;38907;45.562;8.856;2023-03-24T09:29:54;14.30;99.90
51021;DHT22;38907;45.562;8.856;2023-03-24T09:34:57;14.20;99.90
51021;DHT22;38907;45.562;8.856;2023-03-24T09:40:00;14.20;99.90
51021;DHT22;38907;45.562;8.856;2023-03-24T09:45:06;14.10;99.90
51021;DHT22;38907;45.562;8.856;2023-03-24T09:50:19;14.20;99.90
51021;DHT22;38907;45.562;8.856;2023-03-24T09:55:24;14.20;99.90
51021;DHT22;38907;45.562;8.856;2023-03-24T10:00:27;14.20;99.90
51021;DHT22;38907;45.562;8.856;2023-03-24T10:05:37;14.30;99.90
51021;DHT22;38907;45.562;8.856;2023-03-24T10:10:48;14.30;99.90
51021;DHT22;38907;45.562;8.856;2023-03-24T10:15:58;14.30;99.90
51021;DHT22;38907;45.562;8.856;2023-03-24T10:21:11;14.40;99.90
51021;DHT22;38907;45.562;8.856;2023-03-24T10:26:26;14.40;99.90
51021;DHT22;38907;45.562;8.856;2023-03-24T10:31:33;14.50;99.90
51021;DHT22;38907;45.562;8.856;2023-03-24T10:36:37;14.50;99.90
51021;DHT22;38907;45.562;8.856;2023-03-24T10:41:40;14.60;99.90
51021;DHT22;38907;45.562;8.856;2023-03-24T10:46:45;14.60;99.90
51021;DHT22;38907;45.562;8.856;2023-03-24T10:51:50;14.60;99.90
51021;DHT22;38907;45.562;8.856;2023-03-24T10:57:00;14.70;99.90
51021;DHT22;38907;45.562;8.856;2023-03-24T11:02:15;14.70;99.90
51021;DHT22;38907;45.562;8.856;2023-03-24T11:07:20;14.70;99.90
51021;DHT22;38907;45.562;8.856;2023-03-24T11:12:25;14.70;99.90
51021;DHT22;38907;45.562;8.856;2023-03-24T11:17:27;14.60;99.90
51021;DHT22;38907;45.562;8.856;2023-03-24T11:22:31;14.70;99.90
51021;DHT22;38907;45.562;8.856;2023-03-24T11:27:32;14.80;99.90
51021;DHT22;38907;45.562;8.856;2023-03-24T11:32:45;14.80;99.90
51021;DHT22;38907;45.562;8.856;2023-03-24T11:37:49;15.00;99.90
51021;DHT22;38907;45.562;8.856;2023-03-24T11:42:53;15.00;99.90
51021;DHT22;38907;45.562;8.856;2023-03-24T11:47:57;14.70;99.90
51021;DHT22;38907;45.562;8.856;2023-03-24T11:53:06;14.90;99.90
51021;DHT22;38907;45.562;8.856;2023-03-24T11:58:18;15.20;99.90
51021;DHT22;38907;45.562;8.856;2023-03-24T12:03:57;15.20;99.90
51021;DHT22;38907;45.562;8.856;2023-03-24T12:09:09;15.30;99.90
51021;DHT22;38907;45.562;8.856;2023-03-24T12:14:20;15.40;99.90
51021;DHT22;38907;45.562;8.856;2023-03-24T12:19:44;15.50;99.90
51021;DHT22;38907;45.562;8.856;2023-03-24T12:25:07;15.40;99.90
51021;DHT22;38907;45.562;8.856;2023-03-24T12:30:19;15.60;99.90
51021;DHT22;38907;45.562;8.856;2023-03-24T12:35:39;15.60;99.90
51021;DHT22;38907;45.562;8.856;2023-03-24T12:41:22;15.50;99.90
51021;DHT22;38907;45.562;8.856;2023-03-24T12:46:33;15.60;99.90
51021;DHT22;38907;45.562;8.856;2023-03-24T12:51:45;15.70;99.90
51021;DHT22;38907;45.562;8.856;2023-03-24T12:56:53;15.60;99.90
51021;DHT22;38907;45.562;8.856;2023-03-24T13:02:01;15.60;99.90
51021;DHT22;38907;45.562;8.856;2023-03-24T13:07:07;15.60;99.90
51021;DHT22;38907;45.562;8.856;2023-03-24T13:12:15;15.70;99.90
51021;DHT22;38907;45.562;8.856;2023-03-24T13:17:22;15.80;99.90
51021;DHT22;38907;45.562;8.856;2023-03-24T13:22:27;15.60;99.90
51021;DHT22;38907;45.562;8.856;2023-03-24T13:27:35;15.80;99.90
51021;DHT22;38907;45.562;8.856;2023-03-24T13:32:41;15.80;99.90
51021;DHT22;38907;45.562;8.856;2023-03-24T13:37:48;15.80;99.90
51021;DHT22;38907;45.562;8.856;2023-03-24T13:42:56;15.80;99.90
51021;DHT22;38907;45.562;8.856;2023-03-24T13:48:25;15.70;99.90
51021;DHT22;38907;45.562;8.856;2023-03-24T13:53:34;15.80;99.90
51021;DHT22;38907;45.562;8.856;2023-03-24T13:58:50;15.80;99.90
51021;DHT22;38907;45.562;8.856;2023-03-24T14:09:56;15.60;99.90
51021;DHT22;38907;45.562;8.856;2023-03-24T14:15:18;15.50;99.90
51021;DHT22;38907;45.562;8.856;2023-03-24T14:20:31;15.40;99.90
51021;DHT22;38907;45.562;8.856;2023-03-24T14:25:34;15.40;99.90
51021;DHT22;38907;45.562;8.856;2023-03-24T14:30:57;15.40;99.90
51021;DHT22;38907;45.562;8.856;2023-03-24T14:36:02;15.40;99.90
51021;DHT22;38907;45.562;8.856;2023-03-24T14:41:07;15.50;99.90
51021;DHT22;38907;45.562;8.856;2023-03-24T14:46:35;15.60;99.90
51021;DHT22;38907;45.562;8.856;2023-03-24T14:51:40;15.60;99.90
51021;DHT22;38907;45.562;8.856;2023-03-24T14:56:45;15.50;99.90
51021;DHT22;38907;45.562;8.856;2023-03-24T15:01:53;15.50;99.90
51021;DHT22;38907;45.562;8.856;2023-03-24T15:07:02;15.50;99.90
51021;DHT22;38907;45.562;8.856;2023-03-24T15:12:04;15.40;99.90
51021;DHT22;38907;45.562;8.856;2023-03-24T15:17:16;15.50;99.90
51021;DHT22;38907;45.562;8.856;2023-03-24T15:22:19;15.60;99.90
51021;DHT22;38907;45.562;8.856;2023-03-24T15:27:23;15.60;99.90
51021;DHT22;38907;45.562;8.856;2023-03-24T15:32:28;15.50;99.90
51021;DHT22;38907;45.562;8.856;2023-03-24T15:37:34;15.60;99.90
51021;DHT22;38907;45.562;8.856;2023-03-24T15:42:39;15.60;99.90
51021;DHT22;38907;45.562;8.856;2023-03-24T15:47:43;15.50;99.90
51021;DHT22;38907;45.562;8.856;2023-03-24T15:52:58;15.50;99.90
51021;DHT22;38907;45.562;8.856;2023-03-24T15:58:01;15.50;99.90
51021;DHT22;38907;45.562;8.856;2023-03-24T16:03:05;15.40;99.90
51021;DHT22;38907;45.562;8.856;2023-03-24T16:08:24;15.30;99.90
51021;DHT22;38907;45.562;8.856;2023-03-24T16:13:27;15.30;99.90
51021;DHT22;38907;45.562;8.856;2023-03-24T16:18:32;15.40;99.90
51021;DHT22;38907;45.562;8.856;2023-03-24T16:23:35;15.30;99.90
51021;DHT22;38907;45.562;8.856;2023-03-24T16:28:37;15.40;99.90
51021;DHT22;38907;45.562;8.856;2023-03-24T16:33:40;15.40;99.90
51021;DHT22;38907;45.562;8.856;2023-03-24T16:38:42;15.40;99.90
51021;DHT22;38907;45.562;8.856;2023-03-24T16:43:44;15.60;99.90
51021;DHT22;38907;45.562;8.856;2023-03-24T16:48:48;15.60;99.90
51021;DHT22;38907;45.562;8.856;2023-03-24T16:53:49;15.60;99.90
51021;DHT22;38907;45.562;8.856;2023-03-24T16:58:51;15.50;99.90
51021;DHT22;38907;45.562;8.856;2023-03-24T17:03:56;15.50;99.90
51021;DHT22;38907;45.562;8.856;2023-03-24T17:08:58;15.40;99.90
51021;DHT22;38907;45.562;8.856;2023-03-24T17:14:01;15.40;99.90
51021;DHT22;38907;45.562;8.856;2023-03-24T17:19:05;15.30;99.90
51021;DHT22;38907;45.562;8.856;2023-03-24T17:24:08;15.30;99.90
51021;DHT22;38907;45.562;8.856;2023-03-24T17:29:11;15.20;99.90
51021;DHT22;38907;45.562;8.856;2023-03-24T17:34:14;15.10;99.90
51021;DHT22;38907;45.562;8.856;2023-03-24T17:39:18;15.20;99.90
51021;DHT22;38907;45.562;8.856;2023-03-24T17:44:20;15.10;99.90
51021;DHT22;38907;45.562;8.856;2023-03-24T17:49:23;15.00;99.90
51021;DHT22;38907;45.562;8.856;2023-03-24T17:54:26;15.00;99.90
51021;DHT22;38907;45.562;8.856;2023-03-24T17:59:28;15.10;99.90
51021;DHT22;38907;45.562;8.856;2023-03-24T18:04:34;15.10;99.90
51021;DHT22;38907;45.562;8.856;2023-03-24T18:09:36;15.10;99.90
51021;DHT22;38907;45.562;8.856;2023-03-24T18:14:38;15.00;99.90
51021;DHT22;38907;45.562;8.856;2023-03-24T18:19:41;14.90;99.90
51021;DHT22;38907;45.562;8.856;2023-03-24T18:24:43;14.80;99.90
51021;DHT22;38907;45.562;8.856;2023-03-24T18:29:45;14.80;99.90
51021;DHT22;38907;45.562;8.856;2023-03-24T18:34:48;14.70;99.90
51021;DHT22;38907;45.562;8.856;2023-03-24T18:39:50;14.70;99.90
51021;DHT22;38907;45.562;8.856;2023-03-24T18:44:52;14.60;99.90
51021;DHT22;38907;45.562;8.856;2023-03-24T18:49:55;14.70;99.90
51021;DHT22;38907;45.562;8.856;2023-03-24T18:54:57;14.70;99.90
51021;DHT22;38907;45.562;8.856;2023-03-24T19:00:01;14.70;99.90
51021;DHT22;38907;45.562;8.856;2023-03-24T19:05:08;14.70;99.90
51021;DHT22;38907;45.562;8.856;2023-03-24T19:10:10;14.60;99.90
51021;DHT22;38907;45.562;8.856;2023-03-24T19:15:12;14.60;99.90
51021;DHT22;38907;45.562;8.856;2023-03-24T19:20:15;14.50;99.90
51021;DHT22;38907;45.562;8.856;2023-03-24T19:25:17;14.60;99.90
51021;DHT22;38907;45.562;8.856;2023-03-24T19:30:19;14.70;99.90
51021;DHT22;38907;45.562;8.856;2023-03-24T19:35:23;14.50;99.90
51021;DHT22;38907;45.562;8.856;2023-03-24T19:40:24;14.50;99.90
51021;DHT22;38907;45.562;8.856;2023-03-24T19:45:26;14.50;99.90
51021;DHT22;38907;45.562;8.856;2023-03-24T19:50:29;14.30;99.90
51021;DHT22;38907;45.562;8.856;2023-03-24T19:55:31;14.40;99.90
51021;DHT22;38907;45.562;8.856;2023-03-24T20:00:33;14.30;99.90
51021;DHT22;38907;45.562;8.856;2023-03-24T20:05:36;14.40;99.90
51021;DHT22;38907;45.562;8.856;2023-03-24T20:10:38;14.40;99.90
51021;DHT22;38907;45.562;8.856;2023-03-24T20:15:40;14.30;99.90
51021;DHT22;38907;45.562;8.856;2023-03-24T20:20:43;14.30;99.90
51021;DHT22;38907;45.562;8.856;2023-03-24T20:25:45;14.30;99.90
51021;DHT22;38907;45.562;8.856;2023-03-24T20:30:47;14.30;99.90
51021;DHT22;38907;45.562;8.856;2023-03-24T20:35:53;14.30;99.90
51021;DHT22;38907;45.562;8.856;2023-03-24T20:40:58;14.20;99.90
51021;DHT22;38907;45.562;8.856;2023-03-24T20:46:01;14.10;99.90
51021;DHT22;38907;45.562;8.856;2023-03-24T20:51:05;14.00;99.90
51021;DHT22;38907;45.562;8.856;2023-03-24T20:56:08;14.00;99.90
51021;DHT22;38907;45.562;8.856;2023-03-24T21:01:14;14.00;99.90
51021;DHT22;38907;45.562;8.856;2023-03-24T21:06:21;13.90;99.90
51021;DHT22;38907;45.562;8.856;2023-03-24T21:11:23;14.00;99.90
51021;DHT22;38907;45.562;8.856;2023-03-24T21:16:25;14.00;99.90
51021;DHT22;38907;45.562;8.856;2023-03-24T21:21:29;14.00;99.90
51021;DHT22;38907;45.562;8.856;2023-03-24T21:26:31;14.00;99.90
51021;DHT22;38907;45.562;8.856;2023-03-24T21:31:33;13.90;99.90
51021;DHT22;38907;45.562;8.856;2023-03-24T21:36:36;13.80;99.90
51021;DHT22;38907;45.562;8.856;2023-03-24T21:41:40;13.70;99.90
51021;DHT22;38907;45.562;8.856;2023-03-24T21:46:42;13.50;99.90
51021;DHT22;38907;45.562;8.856;2023-03-24T21:51:45;13.60;99.90
51021;DHT22;38907;45.562;8.856;2023-03-24T21:56:48;13.20;99.90
51021;DHT22;38907;45.562;8.856;2023-03-24T22:01:49;13.10;99.90
51021;DHT22;38907;45.562;8.856;2023-03-24T22:06:53;12.80;99.90
51021;DHT22;38907;45.562;8.856;2023-03-24T22:11:55;12.80;99.90
51021;DHT22;38907;45.562;8.856;2023-03-24T22:16:59;12.80;99.90
51021;DHT22;38907;45.562;8.856;2023-03-24T22:22:02;12.80;99.90
51021;DHT22;38907;45.562;8.856;2023-03-24T22:27:04;12.90;99.90
51021;DHT22;38907;45.562;8.856;2023-03-24T22:32:05;12.80;99.90
51021;DHT22;38907;45.562;8.856;2023-03-24T22:37:09;12.80;99.90
51021;DHT22;38907;45.562;8.856;2023-03-24T22:42:11;12.80;99.90
51021;DHT22;38907;45.562;8.856;2023-03-24T22:47:13;13.00;99.90
51021;DHT22;38907;45.562;8.856;2023-03-24T22:52:16;13.00;99.90
51021;DHT22;38907;45.562;8.856;2023-03-24T22:57:18;13.10;99.90
51021;DHT22;38907;45.562;8.856;2023-03-24T23:02:20;13.10;99.90
51021;DHT22;38907;45.562;8.856;2023-03-24T23:07:25;13.00;99.90
51021;DHT22;38907;45.562;8.856;2023-03-24T23:12:28;13.10;99.90
51021;DHT22;38907;45.562;8.856;2023-03-24T23:17:31;13.20;99.90
51021;DHT22;38907;45.562;8.856;2023-03-24T23:22:34;13.10;99.90
51021;DHT22;38907;45.562;8.856;2023-03-24T23:27:38;13.20;99.90
51021;DHT22;38907;45.562;8.856;2023-03-24T23:32:40;13.20;99.90
51021;DHT22;38907;45.562;8.856;2023-03-24T23:37:44;13.30;99.90
51021;DHT22;38907;45.562;8.856;2023-03-24T23:42:46;13.20;99.90
51021;DHT22;38907;45.562;8.856;2023-03-24T23:47:49;13.30;99.90
51021;DHT22;38907;45.562;8.856;2023-03-24T23:52:52;13.30;99.90
51021;DHT22;38907;45.562;8.856;2023-03-24T23:57:54;13.30;99.90
